x

8413320 - Bar Harbor, Me (atgm1) Weather Station

1:54 - Sat 13th Feb 2016 All times are EST. -5 hours from GMT.

  • Wind
    16mph, 20mph gusts
  • Sea Temp 36°f
  • Luft Temp 21°f
  • Sea Pressure 1011.1mb
  • 8413320 - Bar Harbor, Me
  • 8413320 - Bar Harbor, Me

More Historic Weather Station data

Upgrade to MSW Pro to gain access to the past 30 days of data for over 8000 Wavebouys and Weather Stations around the globe.

Join Pro

Comparision Forecast

View Surf forecast
   
Sa 02/13 1:54 16 20 mph 1011.1mb 36f 21f
1:48 20 22 mph 1011.2mb 36f 21f
1:42 16 21 mph 1011.3mb 37f 21f
1:36 18 21 mph 1011.4mb 37f 21f
1:30 15 18 mph 1011.5mb 37f 21f
1:24 16 18 mph 1011.6mb 37f 20f
1:18 16 20 mph 1011.8mb 37f 20f
1:12 16 17 mph 1011.9mb 37f 21f
1:06 16 18 mph 1012mb 37f 21f
1:00 14 17 mph 1012.1mb 36f 20f
12:54 14 16 mph 1012.1mb 36f 21f
12:48 14 16 mph 1012.2mb 36f 20f
12:42 15 18 mph 1012.3mb 36f 21f
12:36 15 17 mph 1012.4mb 37f 21f
12:30 15 17 mph 1012.4mb 37f 20f
12:24 16 18 mph 1012.4mb 37f 20f
12:18 16 18 mph 1012.5mb 37f 20f
12:12 15 17 mph 1012.5mb 36f 20f
12:06 15 17 mph 1012.6mb 36f 20f
12:00 13 15 mph 1012.6mb 36f 20f
Fr 02/12 11:54 13 14 mph 1012.8mb 36f 19f
11:48 13 14 mph 1012.8mb 36f 19f
11:42 11 14 mph 1012.8mb 36f 19f
11:36 11 14 mph 1012.9mb 36f 19f
11:30 3 6 mph 1012.9mb 37f 18f
11:24 2
mph
1012.9mb 36f 17f
11:18  -  2 mph 1013mb 36f 17f
11:12 1 6 mph 1013mb 36f 18f
11:06 2 5 mph 1013mb 36f 17f
11:00  -  2 mph 1013.1mb 36f 16f
10:54  -  2 mph 1013.2mb 36f 16f
10:48 1 3 mph 1013.2mb 36f 16f
10:42 1 3 mph 1013.2mb 36f 16f
10:36  -  3 mph 1013.2mb 36f 16f
10:30 3 5 mph 1013.4mb 36f 16f
10:24 1 5 mph 1013.5mb 36f 16f
10:18  -  mph 1013.6mb 36f 16f
10:12  -  mph 1013.6mb 36f 16f
10:06  -  mph 1013.7mb 36f 15f
10:00  -  mph 1013.8mb 36f 15f
9:54  -  mph 1013.9mb 36f 16f
9:48 3 5 mph 1014mb 36f 16f
9:42 2 3 mph 1014.1mb 36f 16f
9:36 1
mph
1014.2mb 36f 15f
9:30  -  2 mph 1014.4mb 36f -
9:24 2 3 mph 1014.5mb 35f -
9:18  -  mph 1014.6mb 35f 14f
9:12  -  mph 1014.7mb 35f 15f
9:06  -  mph 1014.9mb 35f 15f
9:00  -  mph 1015mb 35f 15f
8:54  -  mph 1015.1mb 35f 15f
8:48 2 3 mph 1015.2mb 35f 15f
8:42  -  2 mph 1015.4mb 35f 15f
8:36  -  1 mph 1015.6mb 34f 14f
8:30 1 3 mph 1015.6mb 34f 14f
8:24  -  2 mph 1015.7mb 34f 15f
8:18  -  2 mph 1015.8mb 34f 15f
8:12  -  2 mph 1015.8mb 34f 15f
8:06 1 2 mph 1015.8mb 34f 15f
8:00  -  mph 1015.9mb 34f 15f
7:54  -  mph 1015.9mb 34f 15f
7:48  -  mph 1016mb 34f 15f
7:42  -  mph 1016.1mb 34f 15f
7:36  -  1 mph 1016.2mb 34f 15f
7:30  -  mph 1016.3mb 34f 15f
7:24  -  mph 1016.3mb 34f 15f
7:18  -  mph 1016.4mb 34f 15f
7:12  -  mph 1016.5mb 34f 15f
7:06  -  mph 1016.5mb 34f 14f
7:00  -  mph 1016.5mb 34f 14f
6:54  -  mph 1016.6mb 34f 13f
6:48 3
mph
- 34f -
6:42 2 5 mph - 34f -
6:36 5 6 mph - 34f -
6:30  -  mph 1016.7mb 34f 12f
6:24  -  mph 1016.7mb 34f 12f
6:18 3 6 mph 1016.6mb 34f 12f
6:12 5
mph
1016.5mb 34f 12f
6:06 3 6 mph 1016.5mb 33f 12f
6:00  -  mph 1016.6mb 33f 12f
5:54  -  mph 1016.6mb 33f 12f
5:48 3 5 mph 1016.6mb 33f 13f
5:42 1 5 mph 1016.6mb 33f 13f
5:36 2 3 mph 1016.5mb 33f 13f
5:30 3
mph
1016.5mb - -
5:24 2 3 mph 1016.5mb - -
5:18  -  2 mph 1016.5mb 33f 14f
5:12  -  3 mph 1016.4mb 33f 14f
5:06  -  3 mph 1016.5mb 33f 14f
5:00 2 5 mph 1016.5mb 34f 14f
4:54 3 5 mph 1016.5mb 34f 14f
4:48 3 6 mph 1016.5mb 34f 14f
4:42 2 3 mph 1016.5mb 34f 14f
4:36 2 6 mph 1016.4mb 34f 14f
4:30 6 7 mph 1016.4mb 34f 14f
4:24 5 7 mph 1016.4mb 34f 15f
4:18 6 9 mph 1016.3mb 34f 15f
4:12 9 13 mph 1016.2mb 34f 15f
4:06 8 13 mph 1016.2mb 34f 15f
4:00 9 14 mph 1016.3mb 34f 15f
3:54 11 15 mph 1016.3mb 34f 15f
3:48 7 11 mph 1016.3mb 34f 15f
3:42 7 10 mph 1016.2mb 34f 15f
3:36 9 14 mph 1016.1mb 34f 15f
3:30 6 13 mph 1016.1mb 34f 15f
3:24 8 16 mph 1016.1mb 34f 14f
3:18 9 16 mph 1016mb 34f 14f
3:12 8 14 mph 1016mb 34f 14f
3:06 7 14 mph 1015.9mb 34f 14f
3:00 11 14 mph 1015.8mb 34f 14f
2:54 8 13 mph 1015.8mb 34f 14f
2:48 10 14 mph 1015.8mb 34f 14f
2:42 8 11 mph 1015.8mb 34f 14f
2:36 8 11 mph 1015.7mb 33f 13f
2:30 7 14 mph 1015.7mb 33f 14f
2:24 7 13 mph 1015.7mb 33f 14f
2:18 13 16 mph 1015.8mb 33f 13f
2:12 9 13 mph 1015.9mb 33f 13f
2:06 11 14 mph 1015.9mb 33f 13f
2:00 9 13 mph 1015.9mb 33f 13f
1:54 7 14 mph 1016mb 33f 13f
1:48 11 17 mph 1016.1mb 33f 13f
1:42 10 14 mph 1016.1mb 33f 13f
1:36 9 15 mph 1016mb 33f 13f
1:30 9 10 mph 1016mb 33f 13f
1:24 7 13 mph 1016.1mb 33f 13f
1:18 7 14 mph 1016mb 33f 12f
1:12 10 16 mph 1016mb 33f 12f
1:06 7 14 mph 1016.2mb 33f 12f
1:00 10 14 mph 1016.3mb 33f 12f
12:54 9 14 mph 1016.4mb 33f 13f
12:48 10 17 mph 1016.5mb 33f 12f
12:42 11 17 mph 1016.4mb 33f 12f
12:36 11 20 mph 1016.5mb 33f 12f
12:30 15 21 mph 1016.6mb 33f 11f
12:24 14 18 mph 1016.7mb 33f 11f
12:18 11 21 mph 1016.9mb 33f 11f
12:12 14 17 mph 1016.8mb 33f 11f
12:06 14 17 mph 1016.9mb 34f 11f
12:00 11 21 mph 1016.8mb 34f 11f
11:54 13 17 mph 1016.9mb 34f 11f
11:48 13 16 mph 1016.9mb 33f 10f
11:42 14 21 mph 1017.1mb 33f 10f
11:36 13 20 mph 1017.1mb 34f 10f
11:30 15 18 mph 1017.1mb 35f 10f
11:24 15 21 mph 1017mb 35f 10f
11:18 16 22 mph 1016.9mb 35f 10f
11:12 15 21 mph 1016.9mb 35f 9f
11:06 17 21 mph 1016.8mb 35f 9f
11:00 14 21 mph 1016.8mb 35f 9f
10:54 14 20 mph 1016.9mb 35f 9f
10:48 16 18 mph 1017.1mb 35f 8f
10:42 15 22 mph 1017.1mb 35f 8f
10:36 16 21 mph 1017.3mb 35f 8f
10:30 16 22 mph 1017.3mb 35f 8f
10:24 15 23 mph 1017.6mb 35f 8f
10:18 15 20 mph 1017.6mb 35f 7f
10:12 15 21 mph 1017.7mb 34f 7f
10:06 14 18 mph 1017.6mb 34f 7f
10:00 17 22 mph 1017.4mb 34f 7f
9:54 18 22 mph 1017.3mb 34f 7f
9:48 15 22 mph 1017.4mb 34f 6f
9:42 15 21 mph 1017.4mb 34f 6f
9:36 17 24 mph 1017.3mb 34f 6f
9:30 16 21 mph 1017.2mb 34f 6f
9:24 17 23 mph 1017.4mb 34f 6f
9:18 17 25 mph 1017.2mb 33f 6f
9:12 22 25 mph 1017mb 33f 5f
9:06 22 25 mph 1016.8mb 33f 5f
9:00 22 25 mph 1016.7mb 33f 5f
8:54 20 26 mph 1016.7mb 32f 4f
8:48 21 26 mph 1016.8mb 32f 5f
8:42 21 26 mph 1016.7mb 33f 5f
8:36 22 28 mph 1016.8mb 32f 4f
8:30 18 25 mph 1016.9mb 32f 4f
8:24 20 25 mph 1016.9mb 32f 4f
8:18 18 26 mph 1016.9mb 32f 4f
8:12 21 25 mph 1016.7mb 32f 4f
8:06 17 23 mph 1016.8mb 32f 4f
8:00 16 24 mph 1016.9mb 33f 4f
7:54 20 25 mph 1016.6mb 33f 3f
7:48 22 26 mph 1016.3mb 33f 3f
7:42 22 25 mph 1016.2mb 33f 3f
7:36 22 29 mph 1016.2mb 33f 4f
7:30 17 24 mph 1016.3mb 33f 4f
7:24 18 24 mph 1016.1mb 33f 4f
7:18 17 23 mph 1016.1mb 33f 3f
7:12 15 18 mph 1016.3mb 33f 3f
7:06 14 21 mph 1016.2mb 33f 4f
7:00 15 21 mph 1016.2mb 33f 4f
6:54 17 23 mph 1016.1mb 33f 3f
6:48 17 23 mph 1015.9mb 34f 3f
6:42 20 23 mph 1015.6mb 34f 3f
6:36 21 26 mph 1015.4mb 34f 3f
6:30 22 25 mph 1015.2mb 34f 3f
6:24 22 26 mph 1015.1mb 34f 3f
6:18 21 24 mph 1015.1mb 34f 3f
6:12 18 23 mph 1015.2mb 34f 3f
6:06 18 22 mph 1015.2mb 34f 3f
6:00 17 22 mph 1015mb 34f 4f
5:54 18 22 mph 1014.9mb 34f 3f
5:48 18 22 mph 1014.9mb 34f 3f
5:42 20 24 mph 1014.7mb 34f 3f
5:36 16 22 mph 1014.7mb 34f 3f
5:30 15 20 mph 1014.7mb 34f 3f
5:24 14 22 mph 1014.8mb 34f 3f
5:18 14 20 mph 1014.7mb 34f 3f
5:12 15 20 mph 1014.6mb 34f 3f
5:06 16 22 mph 1014.4mb 34f 4f
5:00  -  mph - - 4f
4:54  -  mph - - 4f
4:48  -  mph 1014mb 34f 4f
4:42  -  mph 1013.9mb 34f 4f
4:36  -  mph 1013.9mb 34f 4f
4:30 20 24 mph 1013.7mb 34f 4f
4:24 21 25 mph 1013.4mb 34f 4f
4:18 20 26 mph 1013.4mb 34f 4f
4:12 21 24 mph 1013.3mb 34f 4f
4:06 20 24 mph 1013.3mb 34f 4f
4:00 18 23 mph 1013.3mb 34f 4f
3:54 17 24 mph 1013.3mb 34f 4f
3:48 15 22 mph 1013.2mb 34f 5f
3:42 17 22 mph 1013mb 34f 4f
3:36 16 22 mph 1013mb 34f 5f
3:30 20 24 mph 1012.8mb 34f 5f
3:24 21 24 mph 1012.6mb 34f 5f
3:18 18 23 mph 1012.5mb 34f 6f
3:12 21 25 mph 1012.3mb 34f 5f
3:06 22 26 mph 1012.2mb 34f 6f
3:00 21 26 mph 1012.1mb 34f 5f
2:54 22 26 mph 1011.9mb 34f 6f
2:48 23 28 mph 1011.9mb 34f 6f
2:42 23 29 mph 1011.9mb 34f 6f
2:36 18 29 mph 1011.9mb 34f 6f
2:30 22 28 mph 1011.5mb 34f 6f
2:24 23 28 mph 1011.4mb 34f 7f
2:18 21 26 mph 1011.3mb 34f 6f
2:12 21 24 mph 1011.2mb 34f 7f
2:06 22 29 mph 1011.2mb 34f 7f
2:00 22 30 mph 1011mb 34f 7f
1:54 21 28 mph 1010.9mb 34f 8f
1:48 23 29 mph 1010.7mb 34f 8f
1:42 21 26 mph 1010.6mb 34f 8f
1:36 22 24 mph 1010.4mb 34f 8f
1:30 21 26 mph 1010.4mb 34f 8f
1:24 23 29 mph 1010.2mb 34f 8f
1:18 22 24 mph 1010.1mb 34f 8f
1:12 20 24 mph 1010.1mb 34f 9f
1:06 22 30 mph 1009.9mb 34f 9f
1:00 29 34 mph 1009.7mb 34f 10f
12:54 25 29 mph 1009.7mb 34f 9f
12:48 23 32 mph 1009.7mb 34f 10f
12:42 23 31 mph 1009.5mb 34f 11f
12:36 25 30 mph 1009.4mb 34f 10f
12:30 22 30 mph 1009.3mb 34f 11f
12:24 24 32 mph 1009.2mb 34f 10f
12:18 25 32 mph 1009.2mb 34f 11f
12:12 26 34 mph 1009.1mb 34f 11f
12:06 26 34 mph 1009mb 34f 11f
12:00 25 31 mph 1008.9mb 34f 11f
Do 02/11 11:54 22 28 mph 1008.9mb 34f 11f
11:48 28 32 mph 1008.8mb 34f 12f
11:42 23 28 mph 1008.8mb 34f 11f
11:36 23 28 mph 1008.6mb 34f 12f
11:30 23 28 mph 1008.5mb 34f 13f
11:24 22 25 mph 1008.3mb 33f 13f
11:18 21 26 mph 1008.3mb 33f 13f
11:12 24 29 mph 1008.1mb 33f 13f
11:06 21 30 mph 1008mb 34f 14f
11:00 24 30 mph 1007.9mb 35f 15f
10:54 29 34 mph 1007.7mb 35f 14f
10:48 22 26 mph 1007.7mb 35f 15f
10:42 26 32 mph 1007.5mb 36f 15f
10:36 22 28 mph 1007.4mb 36f 15f
10:30 22 28 mph 1007.3mb 36f 15f
10:24 24 29 mph 1007.1mb 36f 15f
10:18  -  mph 1007.1mb 36f 15f
10:12  -  mph 1007mb 36f 15f
10:06  -  mph 1006.9mb 36f 15f
10:00  -  mph 1006.7mb 36f 16f
9:54  -  mph 1006.6mb 36f 17f
9:48 24 31 mph - 36f 17f
9:42 24 29 mph - 36f 17f
9:36 24 31 mph - 36f 17f
9:30 20 26 mph 1006.4mb 36f -
9:24 24 30 mph 1006.2mb 36f -
9:18  -  mph 1006.1mb 36f -
9:12  -  mph 1005.9mb 36f -
9:06  -  mph 1005.8mb 36f -
9:00  -  mph - 36f 18f
8:54  -  mph - 35f 19f
8:48  -  mph 1005.4mb 35f 19f
8:42  -  mph 1005.3mb 35f 19f
8:36  -  mph 1005.2mb 35f 19f
8:30  -  mph 1005.1mb - -
8:24  -  mph 1005.1mb - -
8:18  -  mph 1005mb 35f -
8:12  -  mph 1004.9mb 35f -
8:06  -  mph 1004.9mb 35f -
8:00  -  mph 1004.9mb 35f 21f
7:54  -  mph 1004.7mb 35f 21f
7:48 22 30 mph 1004.6mb 35f 22f
7:42 23 26 mph 1004.4mb 35f 22f
7:36 20 24 mph 1004.5mb 36f 22f
7:30 21 29 mph 1004.4mb 36f 23f
7:24 22 28 mph 1004.2mb 36f 23f
7:18  -  mph 1004mb 36f 23f
7:12  -  mph 1003.9mb 36f 24f
7:06  -  mph 1003.9mb 36f 24f
7:00 17 21 mph 1003.8mb 36f 24f
6:54 16 20 mph 1003.7mb 36f 24f
6:48 17 20 mph 1003.6mb 36f -
6:42 16 20 mph 1003.6mb 36f -
6:36 15 20 mph 1003.6mb 36f -
6:30  -  mph 1003.5mb 36f -
6:24  -  mph 1003.4mb 36f -
6:18  -  mph 1003.4mb 36f 25f
6:12  -  mph 1003.3mb 36f 25f
6:06  -  mph 1003.2mb 36f 25f
6:00 13 17 mph 1003.2mb 36f 25f
5:54 14 17 mph 1003.1mb 36f 25f
5:48 13 17 mph 1003.1mb 36f -
5:42 13 17 mph 1003.1mb 36f -
5:36 16 18 mph 1003mb 36f -
5:30 13 16 mph 1002.9mb - 26f
5:24 13 16 mph 1002.9mb - 26f
5:18  -  mph 1002.8mb 36f 26f
5:12  -  mph 1002.8mb 36f 26f
5:06  -  mph 1002.7mb 36f 26f
5:00  -  mph 1002.6mb 37f 27f
4:54  -  mph 1002.6mb 37f 27f
4:48  -  mph - 37f 27f
4:42  -  mph - 36f 27f
4:36  -  mph - 36f 27f
4:30 8 13 mph 1002.5mb 36f 26f
4:24 11 15 mph 1002.4mb 36f 26f
4:18 13 15 mph 1002.2mb - -
4:12 9 14 mph 1002.2mb - -
4:06 9 13 mph 1002.1mb - -
4:00 8 11 mph 1002.2mb 36f 27f
3:54 7 10 mph 1002.2mb 36f 27f
3:48 7 9 mph 1002.1mb 36f 27f
3:42 8 10 mph 1002.1mb 37f 27f
3:36 7 10 mph 1002mb 36f 27f
3:30 9 11 mph 1002mb 37f 27f
3:24 6 9 mph 1001.9mb 36f 27f
3:18 8 10 mph 1001.8mb 36f 27f
3:12 6 10 mph 1001.8mb 36f 27f
3:06 7 9 mph 1001.7mb 36f 27f
3:00 7 10 mph 1001.6mb 36f 27f
2:54 7 11 mph 1001.5mb 36f 27f
2:48 9 13 mph 1001.3mb 36f 27f
2:42 8 10 mph 1001.3mb 36f 27f
2:36 9 11 mph 1001.2mb 36f 27f
2:30 9 10 mph 1001.1mb 36f 27f
2:24 7 11 mph 1001.1mb 36f 27f
2:18 8 11 mph 1001.1mb 36f 27f
2:12 7 9 mph 1001.1mb 36f 27f
2:06 8 10 mph 1001.1mb 36f 26f
2:00 10 13 mph 1001.1mb 36f 26f
1:54 9 11 mph 1001.1mb 36f 26f
1:48 8 13 mph 1001.1mb 36f 26f
1:42 10 13 mph 1001.1mb 36f 26f
1:36 8 13 mph 1001.2mb 36f 26f
1:30 9 14 mph 1001.2mb 36f 26f
1:24 10 16 mph 1001.2mb 36f 26f
1:18 13 16 mph 1001.2mb 36f 26f
1:12 13 16 mph 1001.2mb 36f 26f
1:06 10 14 mph 1001.3mb 36f 26f
1:00 10 14 mph 1001.3mb 36f 26f
12:54 10 15 mph 1001.4mb 36f 26f
12:48 9 14 mph 1001.3mb 36f 26f
12:42 9 14 mph 1001.3mb 36f 26f
12:36 10 15 mph 1001.4mb 36f 26f
12:30 14 16 mph 1001.4mb 36f 26f
12:24 11 16 mph 1001.4mb 36f 26f
12:18 14 16 mph 1001.4mb 36f 26f
12:12 14 17 mph 1001.5mb 36f 26f
12:06 14 16 mph 1001.5mb 36f 25f
12:00 10 16 mph 1001.6mb 36f 25f
11:54 13 15 mph 1001.6mb 36f 26f
11:48 13 16 mph 1001.8mb 36f 25f
11:42 11 15 mph 1001.8mb 36f 26f
11:36 10 15 mph 1001.8mb 36f 25f
11:30 13 16 mph 1001.8mb 36f 25f
11:24 11 16 mph 1001.9mb 36f 25f
11:18 13 15 mph 1002.1mb 36f 25f
11:12 13 14 mph 1002.1mb 37f 25f
11:06 10 13 mph 1002.1mb 37f 25f
11:00 9 14 mph 1002.1mb 37f -
10:54 10 14 mph 1002.2mb 36f -
10:48 10 14 mph 1002.3mb 36f 25f
10:42 11 15 mph 1002.3mb 36f 24f
10:36 11 14 mph 1002.3mb 36f 24f
10:30 9 15 mph - 37f 24f
10:24 10 14 mph - 37f 24f
10:18 10 15 mph 1002mb 37f 24f
10:12 9 14 mph 1002mb 37f 24f
10:06 9 15 mph 1002.1mb 37f 24f
10:00 11 14 mph 1002mb 37f 24f
9:54 10 16 mph 1002mb 37f 24f
9:48 10 15 mph 1002mb 37f 24f
9:42 11 16 mph 1001.9mb 37f 24f
9:36 11 15 mph 1002mb 37f 24f
9:30 11 14 mph 1002mb 36f 24f
9:24 13 15 mph 1001.9mb 37f 24f
9:18 10 14 mph 1001.9mb 36f 24f
9:12 13 16 mph 1001.9mb 36f 24f
9:06 14 15 mph 1001.8mb 36f 24f
9:00 11 14 mph 1001.8mb 36f 24f
8:54 13 16 mph 1001.7mb 36f 24f
8:48 10 15 mph 1001.7mb 36f 24f
8:42 14 17 mph 1001.6mb 36f 24f
8:36 11 15 mph 1001.5mb 36f 24f
8:30 13 18 mph 1001.5mb 36f 24f
8:24 11 18 mph 1001.5mb 36f 24f
8:18 13 18 mph 1001.5mb 36f 24f
8:12 11 20 mph 1001.4mb 36f 24f
8:06 14 17 mph 1001.4mb 36f 24f
8:00 16 22 mph 1001.5mb 36f 24f
7:54 17 22 mph 1001.4mb 36f 24f
7:48 15 18 mph 1001.4mb 36f 24f
7:42 15 18 mph 1001.3mb 36f 24f
7:36 14 20 mph 1001.1mb 36f 24f
7:30 15 22 mph 1001mb 36f 24f
7:24 14 18 mph 1001mb 36f 25f
7:18 14 17 mph 1000.9mb 36f 25f
7:12 14 18 mph 1001.1mb 36f 25f
7:06 13 18 mph 1001.1mb 36f 24f
7:00 14 17 mph 1001.1mb 36f 25f
6:54 14 21 mph 1001mb 36f 25f
6:48 16 22 mph 1001mb 36f 25f
6:42 16 21 mph 1001.1mb 36f 25f
6:36 14 18 mph 1001mb 36f 26f
6:30 14 17 mph 1000.9mb 36f 26f
6:24 15 17 mph 1000.8mb 36f 26f
6:18 14 20 mph 1000.8mb 36f 26f
6:12 13 22 mph 1000.8mb 36f 26f
6:06 13 21 mph 1000.7mb 36f 26f
6:00 16 23 mph 1000.4mb 36f 26f
5:54 18 24 mph 1000.3mb 36f 26f
5:48 18 24 mph 1000.2mb 36f 26f
5:42 17 22 mph 1000.1mb 36f 27f
5:36 15 22 mph 1000mb 36f 28f
5:30 15 21 mph 999.7mb 36f 28f
5:24 15 21 mph 999.7mb 36f 28f
5:18  -  mph - - 28f
5:12  -  mph - - 28f
5:06  -  mph - - 29f
5:00  -  mph - - 29f
4:54  -  mph - - 29f
4:48  -  mph - 37f 30f
4:42  -  mph - 37f 30f
4:36  -  mph - 37f 30f
4:30 14 15 mph 999.3mb 37f 30f
4:24 11 14 mph 999.3mb 37f 30f
4:18 10 13 mph 999.3mb 37f 30f
4:12 10 13 mph 999.2mb 37f 30f
4:06 7 11 mph 999.2mb 37f 30f
4:00 9 10 mph 999.2mb 37f 30f
3:54 8 10 mph 999.1mb 37f 31f
3:48 7 9 mph 999mb 37f 30f
3:42 7 9 mph 999mb 37f 31f
3:36 7 8 mph 999mb 37f 30f
3:30 8 9 mph 998.9mb 37f 30f
3:24 7 8 mph 998.8mb 37f 31f
3:18 6 7 mph 998.8mb 37f 31f
3:12 6 7 mph 998.8mb 37f 31f
3:06 6
mph
998.8mb 37f 31f
3:00 5 6 mph 998.9mb 37f 31f
2:54 5
mph
999mb 37f 31f
2:48 5
mph
999mb 37f 31f
2:42 3
mph
999.1mb 37f 31f
2:36  -  2 mph 999.2mb 37f 31f
2:30 2 5 mph 999.3mb 37f 31f
2:24 5 6 mph 999.2mb 37f 31f
2:18 5 6 mph 999.1mb 37f 31f
2:12 5
mph
999.1mb 37f 31f
2:06 3 5 mph 999.1mb 37f 31f
2:00 5 6 mph 999.2mb 37f 31f
1:54 5
mph
999.2mb 37f 31f
1:48 5
mph
999.2mb 37f 31f
1:42 2 3 mph 999.2mb 37f 31f
1:36 2 3 mph 999.2mb 37f 30f
1:30 2
mph
999.2mb 37f 30f
1:24 2 3 mph 999.1mb 37f 31f
1:18 2 3 mph 999.1mb - -
1:12 1
mph
999.1mb 37f 31f
1:06 1 2 mph 999.1mb 37f 31f
1:00 1 2 mph 999.1mb 36f 31f
12:54 1 2 mph 999.1mb 36f 31f
12:48 1 2 mph 999.1mb 36f 31f
12:42 2
mph
999.1mb 36f 31f
12:36  -  1 mph 999.1mb 36f 31f
12:30  -  3 mph - - -
12:24 3
mph
999.2mb 36f 31f
12:18 2
mph
999.3mb 36f 31f
12:12  -  2 mph 999.3mb 36f 31f
12:06 2 3 mph 999.3mb 36f 31f
12:00 3 5 mph 999.3mb 36f 31f
Mi 02/10 11:54 2 5 mph 999.4mb 36f 31f
11:48 3 5 mph 999.4mb 37f 31f
11:42 5
mph
999.4mb 37f 31f
11:36 5 6 mph 999.4mb 37f 31f
11:30 3
mph
999.5mb 37f 31f
11:24 2 3 mph 999.5mb 37f 31f
11:18 3
mph
999.5mb 37f 31f
11:12 1 2 mph 999.5mb 37f 31f
11:06 2 3 mph 999.5mb 37f 31f
11:00  -  1 mph 999.5mb 37f 31f
10:54  -  1 mph 999.5mb 37f 31f
10:48  -  1 mph 999.5mb 37f 31f
10:42  -  1 mph 999.6mb 37f 31f
10:36 1 2 mph 999.6mb 37f 31f
10:30 1 2 mph 999.6mb 37f 31f
10:24  -  1 mph 999.6mb 37f 31f
10:18 1 2 mph 999.7mb 37f 31f
10:12 1 2 mph 999.7mb 37f 31f
10:06  -  1 mph 999.7mb 37f 31f
10:00  -  mph 999.7mb 37f 31f
9:54  -  mph 999.8mb 37f 31f
9:48  -  1 mph - 37f 31f
9:42  -  2 mph - 37f 31f
9:36 1 2 mph - 37f 31f
9:30  -  mph 999.9mb 37f 31f
9:24  -  mph 1000mb 37f 31f
9:18 3 6 mph 1000mb 37f 31f
9:12 2 3 mph 1000mb 37f 31f
9:06 2 5 mph 1000mb 37f 31f
9:00  -  mph - 37f 31f
8:54  -  mph - 37f 31f
8:48  -  mph - - 31f
8:42  -  mph - - 31f
8:36  -  mph - - 31f
8:30 1 3 mph 1000.2mb 37f 30f
8:24 2 5 mph 1000.3mb 37f 30f
8:18 2 5 mph 1000.3mb 37f 30f
8:12 3 5 mph 1000.3mb 37f 30f
8:06 3 5 mph 1000.3mb 37f 30f
8:00 3 6 mph 1000.3mb 37f 30f
7:54 3 6 mph 1000.3mb 37f 30f
7:48 2 5 mph 1000.3mb 37f 30f
7:42 3 8 mph 1000.3mb 37f 30f
7:36 5 7 mph 1000.3mb 37f 30f
7:30  -  mph 1000.4mb 37f 30f
7:24  -  mph 1000.5mb 37f 30f
7:18  -  mph 1000.5mb 37f 30f
7:12  -  mph 1000.5mb 37f 30f
7:06  -  mph 1000.6mb 37f 30f
7:00  -  mph 1000.6mb 37f 30f
6:54  -  mph 1000.7mb 37f 30f
6:48 5 7 mph 1000.7mb 37f -
6:42 5 8 mph 1000.7mb 37f -
6:36 6 8 mph 1000.7mb 37f -
6:30  -  mph 1000.7mb 37f 30f
6:24  -  mph 1000.7mb 37f 30f
6:18  -  mph 1000.7mb 37f 30f
6:12  -  mph 1000.6mb 37f 30f
6:06  -  mph 1000.6mb 37f 30f
6:00  -  mph 1000.5mb 37f 30f
5:54  -  mph 1000.5mb 37f 30f
5:48 3 5 mph - 37f 31f
5:42 2 3 mph - 37f 31f
5:36 2 3 mph - 37f 31f
5:30 2 3 mph 1000.4mb 37f -
5:24 1 3 mph 1000.4mb 37f -
5:18  -  mph 1000.4mb 37f 31f
5:12  -  mph 1000.4mb 37f 31f
5:06  -  mph 1000.3mb 37f 31f
5:00 1
mph
- 37f 31f
4:54  -  mph - 37f 31f
4:48  -  mph 1000.1mb 37f 31f
4:42  -  mph 1000.1mb 37f 31f
4:36  -  1 mph 1000.2mb 37f 31f
4:30  -  1 mph 1000.1mb 37f 31f
4:24 1 2 mph 1000.1mb 37f 31f
4:18  -  mph 1000mb 37f 31f
4:12  -  mph 1000mb 37f 31f
4:06  -  1 mph 999.9mb 37f 31f
4:00  -  1 mph 999.9mb 37f 31f
3:54  -  1 mph 999.9mb 37f 31f
3:48  -  1 mph 999.9mb 37f 31f
3:42  -  3 mph 999.8mb 37f 31f
3:36 2 3 mph 999.8mb 37f 31f
3:30  -  mph 999.7mb 37f 31f
3:24  -  2 mph 999.7mb 37f 31f
3:18 1 3 mph 999.8mb 37f 31f
3:12 3
mph
999.8mb 37f 31f
3:06 3 5 mph 999.8mb 37f 31f
3:00  -  2 mph 999.9mb 37f 31f
2:54  -  2 mph 999.9mb 37f 31f
2:48 2 3 mph 999.9mb 37f 31f
2:42  -  3 mph 999.9mb 37f 31f
2:36 2
mph
999.9mb 37f 31f
2:30 2 3 mph 999.9mb 37f 31f
2:24 2 3 mph 999.9mb 37f 31f
2:18 2 3 mph 999.9mb 37f 31f
2:12 2 5 mph 999.8mb 37f 31f
2:06 3 5 mph 999.7mb 37f 31f
2:00 3 5 mph 999.8mb 37f 31f
1:54 3 5 mph 999.8mb 37f 31f
1:48 3 5 mph 999.9mb 37f 31f
1:42 5 6 mph 999.9mb 37f 31f
1:36 5 8 mph 999.9mb 37f 30f
1:30 6 7 mph 999.9mb 37f 30f
1:24 3 5 mph 999.9mb 37f 30f
1:18  -  6 mph 1000mb 37f 30f
1:12 2 5 mph 1000.2mb 37f 30f
1:06 3 6 mph 1000.3mb 37f 30f
1:00 2 7 mph 1000.4mb 37f 31f
12:54 6 9 mph 1000.5mb 37f 31f
12:48 6 10 mph 1000.5mb 37f 31f
12:42 9 13 mph 1000.5mb 36f 31f
12:36 2 9 mph 1000.5mb 36f 31f
12:30 8 11 mph 1000.5mb 36f 30f
12:24 6 8 mph 1000.7mb 36f 31f
12:18 2 5 mph 1000.7mb 36f 30f
12:12 3 5 mph 1000.8mb 36f 29f
12:06 5 6 mph 1000.8mb 37f 28f
12:00 6 7 mph 1000.9mb 37f 28f
11:54 5 7 mph 1001mb 37f 28f
11:48 6 7 mph 1001mb 37f 28f
11:42 5 6 mph 1001.2mb 37f 28f
11:36 5 6 mph 1001.3mb 37f 28f
11:30 6 7 mph 1001.4mb 37f 28f
11:24 5 7 mph 1001.5mb 37f 27f
11:18 2 5 mph 1001.7mb 37f 28f
11:12 3 5 mph 1001.8mb 37f 28f
11:06  -  6 mph 1001.9mb 37f 30f
11:00 3 9 mph 1001.9mb 37f 29f
10:54 6 10 mph 1002mb 37f 29f
10:48 7 14 mph 1002mb 37f 29f
10:42 3 8 mph 1002.1mb 37f 29f
10:36 7 11 mph 1002.2mb 37f 29f
10:30 6 10 mph 1002.2mb 37f 28f
10:24 8 11 mph 1002.2mb 37f 28f
10:18 8 10 mph 1002.3mb 37f 27f
10:12 7 9 mph 1002.4mb 37f 28f
10:06 5 9 mph 1002.5mb 37f 27f
10:00 6 11 mph 1002.5mb 37f 27f
9:54 7 10 mph 1002.5mb 37f 27f
9:48 6 8 mph 1002.5mb 37f 27f
9:42  -  2 mph 1002.4mb 37f 27f
9:36 1 2 mph 1002.3mb 37f 26f
9:30 2 3 mph 1002.4mb 37f 26f
9:24 2
mph
1002.4mb 37f 26f
9:18 2 3 mph 1002.4mb 37f 25f
9:12 2 3 mph 1002.4mb 37f 25f
9:06 2
mph
1002.3mb 37f 25f
9:00 2 3 mph 1002.4mb 37f 25f
8:54  -  mph 1002.4mb 37f 26f
8:48  -  1 mph 1002.3mb 37f 25f
8:42  -  mph 1002.3mb 37f 25f
8:36  -  mph 1002.3mb 37f 24f
8:30  -  1 mph 1002.3mb 37f 24f
8:24  -  mph 1002.3mb 37f 25f
8:18  -  1 mph 1002.3mb 37f 24f
8:12 1 2 mph 1002.3mb 37f 22f
8:06  -  2 mph 1002.3mb 37f 22f
8:00 1 2 mph 1002.3mb 37f 22f
7:54  -  2 mph 1002.3mb 37f 22f
7:48 1 2 mph 1002.4mb 37f 21f
7:42 2 5 mph 1002.4mb 37f 21f
7:36 3
mph
1002.4mb 37f 22f
7:30  -  1 mph 1002.4mb 37f 22f
7:24  -  2 mph 1002.5mb 37f 21f
7:18 1 3 mph 1002.4mb 37f 20f
7:12 3
mph
1002.3mb 36f 20f
7:06 2
mph
1002.2mb 37f 20f
7:00 1 3 mph 1002.2mb 37f 19f
6:54 2 3 mph 1002.2mb 37f 19f
6:48 2 5 mph 1002.1mb 37f 18f
6:42 3 5 mph 1002mb 36f 18f
6:36 3 5 mph 1001.9mb 37f 18f
6:30 3 6 mph 1001.8mb 37f 18f
6:24 3 5 mph 1001.7mb 36f 19f
6:18 5 6 mph 1001.6mb 36f 19f
6:12 5 6 mph 1001.6mb 36f 18f
6:06 5 6 mph 1001.6mb 36f 18f
6:00 5 6 mph 1001.4mb 36f 18f
5:54 3 5 mph 1001.2mb 36f 19f
5:48 5 6 mph 1001.2mb 36f 18f
5:42 3 6 mph 1001mb 36f 18f
5:36 5 6 mph 1000.9mb 36f 19f
5:30 5 8 mph 1000.9mb 36f 19f
5:24 7 9 mph 1000.8mb 36f 19f
5:18 7 9 mph 1000.8mb 36f 19f
5:12 7 9 mph 1000.8mb 36f 19f
5:06 6 7 mph 1000.9mb 36f 19f
5:00 5 8 mph 1000.9mb 36f 19f
4:54 5 7 mph 1000.9mb 36f 19f
4:48  -  mph 1000.9mb 36f 19f
4:42  -  mph 1001mb 36f 19f
4:36  -  mph 1001mb 36f 19f
4:30 8 9 mph 1000.9mb 36f 19f
4:24 5 7 mph 1001mb 36f 19f
4:18 3 7 mph 1001mb 36f 19f
4:12 3 7 mph 1000.9mb 36f 20f
4:06 3 8 mph 1001.1mb 36f 20f
4:00 5 6 mph 1001.2mb 36f 20f
3:54 2 6 mph 1001.3mb 36f 20f
3:48 2 5 mph 1001.3mb 36f 20f
3:42 3 6 mph 1001.3mb 36f 20f
3:36 5 6 mph 1001.2mb 36f 20f
3:30 3 6 mph 1001.1mb 36f 20f
3:24 3
mph
1001.1mb 36f 20f
3:18 1 2 mph 1001.2mb 36f 20f
3:12  -  2 mph 1001.2mb 36f 20f
3:06 1 3 mph 1001.2mb 36f 20f
3:00 3 5 mph 1001.2mb 36f 20f
2:54 3 5 mph 1001.2mb 36f 20f
2:48 3 6 mph 1001.3mb 36f 20f
2:42 3 6 mph 1001.2mb 36f 20f
2:36 3 5 mph 1001.2mb 36f 20f
2:30 2 3 mph 1001.2mb 36f 20f
2:24 3 5 mph 1001mb 36f 20f
2:18 3 5 mph 1000.9mb 36f 20f
2:12 3 6 mph 1000.8mb 36f 20f
2:06 5 6 mph 1000.9mb 36f 20f
2:00 6 7 mph 1000.9mb 36f 20f
1:54 5 7 mph 1000.9mb 36f 21f
1:48 6 7 mph 1000.9mb 36f 21f
1:42 6 7 mph 1000.8mb 36f 21f
1:36 5 6 mph 1000.7mb 36f 21f
1:30 3 6 mph 1000.6mb 36f 21f
1:24 5 6 mph 1000.6mb 36f 21f
1:18 5 6 mph 1000.5mb 36f 21f
1:12 3 7 mph 1000.4mb 36f 22f
1:06 5 7 mph 1000.4mb 36f 22f
1:00 5 7 mph 1000.3mb 37f 22f
12:54 6 7 mph 1000.3mb 37f 22f
12:48 3 8 mph 1000.4mb 37f 22f
12:42 6 8 mph 1000.5mb 37f 22f
12:36 6 9 mph 1000.6mb 36f 22f
12:30 7 9 mph 1000.7mb 36f 22f
12:24 7 9 mph 1000.7mb 36f 22f
12:18 6 8 mph 1000.8mb 36f 22f
12:12 6 7 mph 1000.8mb 36f 22f
12:06 6 8 mph 1000.9mb 36f 22f
12:00 6 8 mph 1000.8mb 36f 22f
Di 02/09 11:54 7 8 mph 1000.7mb 36f 22f
11:48 6 10 mph 1000.6mb 36f 22f
11:42 7 8 mph 1000.6mb 36f 22f
11:36 7 8 mph 1000.6mb 36f 22f
11:30 6 9 mph 1000.6mb 36f 22f
11:24 6 8 mph 1000.5mb 36f 22f
11:18 6 8 mph 1000.5mb 37f 22f
11:12 5 9 mph 1000.6mb 37f 22f
11:06 8 10 mph 1000.5mb 37f 22f
11:00 8 10 mph 1000.3mb 37f 22f
10:54 7 9 mph 1000.3mb 37f 22f
10:48 7 9 mph 1000.3mb 37f 22f
10:42 6 10 mph 1000.3mb 37f 22f
10:36 5 10 mph 1000.3mb 37f 23f
10:30 8 13 mph 1000.2mb 37f 22f
10:24 10 11 mph 1000mb 37f 22f
10:18 9 11 mph 1000mb 37f 22f
10:12 7 11 mph 1000mb 37f 22f
10:06 8 11 mph 1000mb 36f 22f
10:00 8 9 mph 1000mb 36f 22f
9:54 7 10 mph 1000.1mb 36f 23f
9:48  -  mph 1000.1mb 36f 23f
9:42  -  mph 1000.1mb 36f 23f
9:36  -  mph 1000.1mb 37f 23f
9:30 9 11 mph 1000.1mb 37f 24f
9:24 9 14 mph 1000.1mb 37f 23f
9:18 11 13 mph 1000.1mb 37f 24f
9:12 8 11 mph 1000.1mb 37f 24f
9:06 8 13 mph 1000.1mb 37f 24f
9:00 8 14 mph 1000.2mb 37f 24f
8:54 9 15 mph 1000.2mb 37f 24f
8:48 9 14 mph 1000.2mb 37f 24f
8:42 9 14 mph 1000.2mb 36f 24f
8:36 8 14 mph 1000.3mb 37f 24f
8:30 7 14 mph 1000.3mb 36f 24f
8:24 10 14 mph 1000.3mb 36f 24f
8:18 9 14 mph 1000.4mb 36f 24f
8:12 9 13 mph 1000.5mb 36f 24f
8:06 7 13 mph 1000.6mb 36f 24f
8:00 7 11 mph 1000.7mb 36f 24f
7:54 9 13 mph 1000.8mb 36f 24f
7:48  -  mph 1000.8mb 36f 24f
7:42  -  mph 1000.9mb 36f 24f
7:36  -  mph 1001mb 36f 24f
7:30 9 11 mph 1001mb 36f 24f
7:24 9 13 mph 1001mb 36f 24f
7:18  -  mph 1001mb 36f 24f
7:12  -  mph 1001.1mb 36f 25f
7:06  -  mph 1001mb 36f 25f
7:00  -  mph 1001.1mb 36f 25f
6:54  -  mph 1001.1mb 36f 25f
6:48 7 10 mph 1001.1mb 36f 25f
6:42 9 11 mph 1001.1mb 36f 24f
6:36 7 9 mph 1001.2mb 35f 24f
6:30 7 10 mph 1001.3mb 36f 24f
6:24 8 14 mph 1001.2mb 36f 24f
6:18 7 11 mph 1001.2mb 36f 25f
6:12 7 11 mph 1001.2mb 36f 25f
6:06 7 11 mph 1001.2mb 36f 25f
6:00 9 11 mph 1001.1mb 36f 24f
5:54 7 9 mph 1001.2mb 36f 25f
5:48 6 9 mph 1001.1mb 36f 25f
5:42 5 9 mph 1001.1mb 36f 24f
5:36 5 9 mph 1001.1mb 36f 24f
5:30 6 8 mph 1001.1mb 36f 25f
5:24 7 10 mph 1000.9mb 36f 25f
5:18 6 8 mph 1000.9mb 36f 25f
5:12 7 9 mph 1001mb 36f 25f
5:06 5 8 mph 1001mb 36f 25f
5:00 5 8 mph 1001mb 35f 25f
4:54 6 8 mph 1000.9mb 35f 25f
4:48 6 10 mph 1000.8mb 35f 24f
4:42 7 9 mph 1000.6mb 35f 24f
4:36 6 9 mph 1000.5mb 35f 24f
4:30 8 10 mph 1000.4mb 36f 25f
4:24 8 11 mph 1000.6mb 36f 25f
4:18 8 13 mph 1000.5mb 36f 25f
4:12 9 15 mph 1000.4mb 36f 25f
4:06 10 13 mph 1000.4mb 36f 25f
4:00 9 14 mph 1000.3mb 36f 25f
3:54 10 13 mph 1000.2mb 36f 25f
3:48 10 14 mph 1000.5mb 36f 25f
3:42 11 14 mph 1000.7mb 36f 25f
3:36 10 13 mph 1000.7mb 36f 25f
3:30 10 13 mph 1000.8mb 36f 25f
3:24 7 10 mph 1000.8mb 36f 26f
3:18 8 10 mph 1000.9mb 36f 26f
3:12 6 11 mph 1000.8mb 36f 26f
3:06 8 13 mph 1000.6mb 36f 26f
3:00 10 15 mph 1000.5mb 36f 25f
2:54 8 14 mph 1000.2mb 36f 25f
2:48 7 14 mph 1000.2mb 36f 25f
2:42 8 13 mph 1000.4mb 36f 25f
2:36 9 13 mph 1000.6mb 36f 25f
2:30 8 13 mph 1000.6mb 36f 25f
2:24 9 13 mph 1000.6mb 36f 24f
2:18 8 14 mph 1001.1mb 37f 24f
2:12 7 9 mph 1001.3mb 37f 24f
2:06 6 8 mph 1001.6mb 37f 24f
2:00 6 7 mph 1001.8mb 36f 24f
1:54 2 10 mph 1002.1mb 36f 24f
1:48 5 8 mph 1002.2mb 36f 24f
1:42 6 7 mph 1002.3mb 35f 24f
1:36 6 8 mph 1002.4mb 36f 24f
1:30 6 10 mph 1002.2mb 36f 24f
1:24 8 10 mph 1002.3mb 35f 24f
1:18 6 9 mph 1002.5mb 35f 24f
1:12 6 8 mph 1002.5mb 35f 24f
1:06 3 6 mph 1002.5mb 35f 24f
1:00 3 6 mph 1002.8mb 35f 24f
12:54 3 7 mph 1002.9mb 36f 24f
12:48 6 8 mph 1002.8mb 35f 23f
12:42 3 8 mph 1002.8mb 36f 23f
12:36 5 8 mph 1002.8mb 36f 23f
12:30 6 10 mph 1002.5mb 36f 23f
12:24 6 7 mph 1002.4mb 36f 23f
12:18 5 9 mph 1002.8mb 36f 23f
12:12 6 10 mph 1002.8mb 36f 23f
12:06 6 10 mph 1003mb 37f 23f
12:00 7 10 mph 1003.2mb 37f 23f
11:54 6 10 mph 1003.4mb 36f 23f
11:48 6 10 mph 1003.2mb 37f 23f
11:42 7 11 mph 1003.4mb 37f 22f
11:36 7 11 mph 1003.6mb 37f 22f
11:30 6 10 mph 1004mb 37f 22f
11:24 6 9 mph 1004.2mb 37f 22f
11:18 5 8 mph 1004.2mb 37f 22f
11:12 6 8 mph 1004mb 37f 22f
11:06 6 9 mph 1003.9mb 37f 22f
11:00 6 9 mph 1004.1mb 37f 22f
10:54 7 9 mph 1004.2mb 36f 22f
10:48 5 7 mph 1004.6mb 36f 22f
10:42 6 7 mph 1004.9mb 37f 21f
10:36 3 6 mph 1005.2mb 37f 21f
10:30 3 5 mph 1005.2mb 37f 21f
10:24 2 6 mph 1005mb 36f 21f
10:18 5 6 mph 1005mb 36f 20f
10:12 6 7 mph 1005.2mb 37f 20f
10:06 6 7 mph 1005.3mb 37f 20f
10:00 5 7 mph 1005.5mb 37f 20f
9:54 6 9 mph 1005.3mb 37f 20f
9:48 6 8 mph 1005.2mb 36f 20f
9:42 7 9 mph 1005.1mb 36f 20f
9:36 6 9 mph 1004.7mb 36f 20f
9:30 7 10 mph 1004.5mb 36f 20f
9:24 7 9 mph 1004.5mb 36f 20f
9:18 7 10 mph 1004.5mb 36f 19f
9:12 3 9 mph 1004.2mb 36f 19f
9:06 7 11 mph 1004.1mb 36f 19f
9:00 9 11 mph 1004mb 36f 19f
8:54 9 11 mph 1004.2mb 36f 19f
8:48 8 14 mph 1004.1mb 36f 19f
8:42 9 15 mph 1004mb 36f 19f
8:36 9 11 mph 1004.2mb 36f 19f
8:30 9 14 mph 1004.6mb 36f 18f
8:24 10 14 mph 1004.7mb 36f 18f
8:18 11 15 mph 1004.7mb 36f 18f
8:12 8 14 mph 1004.8mb 36f 19f
8:06 9 13 mph 1004.9mb 36f 19f
8:00 9 13 mph 1005mb 36f 19f
7:54 10 14 mph 1005.1mb 36f 19f
7:48 10 13 mph 1005.1mb 35f 19f
7:42 9 13 mph 1005.1mb 35f 19f
7:36 9 14 mph 1005mb 35f 19f